sensor_id;sensor_type;location;lat;lon;timestamp;P1;durP1;ratioP1;P2;durP2;ratioP2
6485;SDS011;3276;48.490;9.222;2022-12-18T00:01:01;215.73;;;197.20;;
6485;SDS011;3276;48.490;9.222;2022-12-18T00:03:31;224.93;;;206.75;;
6485;SDS011;3276;48.490;9.222;2022-12-18T00:05:57;217.00;;;198.43;;
6485;SDS011;3276;48.490;9.222;2022-12-18T00:08:23;221.50;;;202.73;;
6485;SDS011;3276;48.490;9.222;2022-12-18T00:10:48;170.93;;;153.70;;
6485;SDS011;3276;48.490;9.222;2022-12-18T00:13:14;213.23;;;195.17;;
6485;SDS011;3276;48.490;9.222;2022-12-18T00:15:39;156.20;;;140.00;;
6485;SDS011;3276;48.490;9.222;2022-12-18T00:18:05;235.47;;;216.10;;
6485;SDS011;3276;48.490;9.222;2022-12-18T00:20:31;226.57;;;208.30;;
6485;SDS011;3276;48.490;9.222;2022-12-18T00:23:01;281.60;;;260.63;;
6485;SDS011;3276;48.490;9.222;2022-12-18T00:25:27;245.30;;;226.57;;
6485;SDS011;3276;48.490;9.222;2022-12-18T00:27:52;240.17;;;222.27;;
6485;SDS011;3276;48.490;9.222;2022-12-18T00:30:18;223.07;;;204.57;;
6485;SDS011;3276;48.490;9.222;2022-12-18T00:32:43;236.97;;;218.10;;
6485;SDS011;3276;48.490;9.222;2022-12-18T00:35:09;206.70;;;189.60;;
6485;SDS011;3276;48.490;9.222;2022-12-18T00:37:34;234.00;;;215.30;;
6485;SDS011;3276;48.490;9.222;2022-12-18T00:40:00;224.40;;;205.70;;
6485;SDS011;3276;48.490;9.222;2022-12-18T00:42:26;247.63;;;228.38;;
6485;SDS011;3276;48.490;9.222;2022-12-18T00:45:10;190.98;;;173.80;;
6485;SDS011;3276;48.490;9.222;2022-12-18T00:47:36;253.80;;;234.30;;
6485;SDS011;3276;48.490;9.222;2022-12-18T00:50:01;176.57;;;158.63;;
6485;SDS011;3276;48.490;9.222;2022-12-18T00:52:27;234.23;;;218.03;;
6485;SDS011;3276;48.490;9.222;2022-12-18T00:54:53;225.03;;;206.93;;
6485;SDS011;3276;48.490;9.222;2022-12-18T00:57:18;229.87;;;212.20;;
6485;SDS011;3276;48.490;9.222;2022-12-18T00:59:44;204.80;;;187.67;;
6485;SDS011;3276;48.490;9.222;2022-12-18T01:02:09;258.93;;;241.27;;
6485;SDS011;3276;48.490;9.222;2022-12-18T01:04:35;248.77;;;231.07;;
6485;SDS011;3276;48.490;9.222;2022-12-18T01:07:01;245.67;;;227.33;;
6485;SDS011;3276;48.490;9.222;2022-12-18T01:09:26;255.83;;;237.13;;
6485;SDS011;3276;48.490;9.222;2022-12-18T01:11:52;228.93;;;211.77;;
6485;SDS011;3276;48.490;9.222;2022-12-18T01:14:17;212.53;;;195.30;;
6485;SDS011;3276;48.490;9.222;2022-12-18T01:16:43;183.77;;;167.17;;
6485;SDS011;3276;48.490;9.222;2022-12-18T01:19:08;237.23;;;219.37;;
6485;SDS011;3276;48.490;9.222;2022-12-18T01:21:34;276.30;;;257.53;;
6485;SDS011;3276;48.490;9.222;2022-12-18T01:23:59;268.70;;;250.50;;
6485;SDS011;3276;48.490;9.222;2022-12-18T01:26:25;265.17;;;245.20;;
6485;SDS011;3276;48.490;9.222;2022-12-18T01:28:54;228.82;;;211.75;;
6485;SDS011;3276;48.490;9.222;2022-12-18T01:31:31;212.07;;;194.60;;
6485;SDS011;3276;48.490;9.222;2022-12-18T01:34:00;261.80;;;244.00;;
6485;SDS011;3276;48.490;9.222;2022-12-18T01:36:30;233.85;;;216.52;;
6485;SDS011;3276;48.490;9.222;2022-12-18T01:38:59;248.23;;;230.40;;
6485;SDS011;3276;48.490;9.222;2022-12-18T01:41:27;235.98;;;218.55;;
6485;SDS011;3276;48.490;9.222;2022-12-18T01:50:06;270.85;;;252.95;;
6485;SDS011;3276;48.490;9.222;2022-12-18T01:52:41;216.23;;;199.10;;
6485;SDS011;3276;48.490;9.222;2022-12-18T01:55:11;156.57;;;141.93;;
6485;SDS011;3276;48.490;9.222;2022-12-18T01:57:39;234.82;;;217.30;;
6485;SDS011;3276;48.490;9.222;2022-12-18T02:00:19;209.43;;;193.35;;
6485;SDS011;3276;48.490;9.222;2022-12-18T02:02:46;239.57;;;222.32;;
6485;SDS011;3276;48.490;9.222;2022-12-18T02:05:13;205.45;;;189.75;;
6485;SDS011;3276;48.490;9.222;2022-12-18T02:10:28;244.90;;;227.57;;
6485;SDS011;3276;48.490;9.222;2022-12-18T02:13:07;234.25;;;217.38;;
6485;SDS011;3276;48.490;9.222;2022-12-18T02:18:18;251.10;;;232.10;;
6485;SDS011;3276;48.490;9.222;2022-12-18T02:20:48;309.13;;;287.45;;
6485;SDS011;3276;48.490;9.222;2022-12-18T02:26:44;173.88;;;158.90;;
6485;SDS011;3276;48.490;9.222;2022-12-18T02:29:18;195.02;;;178.80;;
6485;SDS011;3276;48.490;9.222;2022-12-18T02:31:52;218.23;;;201.05;;
6485;SDS011;3276;48.490;9.222;2022-12-18T02:34:21;203.23;;;186.55;;
6485;SDS011;3276;48.490;9.222;2022-12-18T02:36:50;228.82;;;210.80;;
6485;SDS011;3276;48.490;9.222;2022-12-18T02:39:17;250.10;;;231.02;;
6485;SDS011;3276;48.490;9.222;2022-12-18T02:41:44;223.98;;;206.70;;
6485;SDS011;3276;48.490;9.222;2022-12-18T02:44:11;226.77;;;209.77;;
6485;SDS011;3276;48.490;9.222;2022-12-18T02:46:43;311.83;;;288.63;;
6485;SDS011;3276;48.490;9.222;2022-12-18T02:49:31;239.05;;;220.02;;
6485;SDS011;3276;48.490;9.222;2022-12-18T02:57:39;286.50;;;267.13;;
6485;SDS011;3276;48.490;9.222;2022-12-18T03:00:17;330.08;;;307.08;;
6485;SDS011;3276;48.490;9.222;2022-12-18T03:05:40;234.13;;;216.85;;
6485;SDS011;3276;48.490;9.222;2022-12-18T03:08:17;215.27;;;198.27;;
6485;SDS011;3276;48.490;9.222;2022-12-18T03:10:51;214.73;;;197.77;;
6485;SDS011;3276;48.490;9.222;2022-12-18T03:13:26;262.73;;;245.27;;
6485;SDS011;3276;48.490;9.222;2022-12-18T03:15:58;221.93;;;205.38;;
6485;SDS011;3276;48.490;9.222;2022-12-18T03:18:27;187.70;;;171.85;;
6485;SDS011;3276;48.490;9.222;2022-12-18T03:20:58;235.50;;;219.00;;
6485;SDS011;3276;48.490;9.222;2022-12-18T03:23:29;180.13;;;164.90;;
6485;SDS011;3276;48.490;9.222;2022-12-18T03:25:59;224.45;;;208.10;;
6485;SDS011;3276;48.490;9.222;2022-12-18T03:28:29;255.77;;;237.80;;
6485;SDS011;3276;48.490;9.222;2022-12-18T03:30:57;267.23;;;249.18;;
6485;SDS011;3276;48.490;9.222;2022-12-18T03:34:09;173.65;;;158.93;;
6485;SDS011;3276;48.490;9.222;2022-12-18T03:36:20;193.23;;;176.90;;
6485;SDS011;3276;48.490;9.222;2022-12-18T03:38:47;217.27;;;200.30;;
6485;SDS011;3276;48.490;9.222;2022-12-18T03:41:18;205.57;;;189.37;;
6485;SDS011;3276;48.490;9.222;2022-12-18T03:48:58;209.48;;;193.55;;
6485;SDS011;3276;48.490;9.222;2022-12-18T03:51:39;213.43;;;196.48;;
6485;SDS011;3276;48.490;9.222;2022-12-18T03:54:10;229.50;;;212.23;;
6485;SDS011;3276;48.490;9.222;2022-12-18T03:56:39;237.15;;;219.95;;
6485;SDS011;3276;48.490;9.222;2022-12-18T03:59:15;191.02;;;174.10;;
6485;SDS011;3276;48.490;9.222;2022-12-18T04:01:46;206.82;;;190.27;;
6485;SDS011;3276;48.490;9.222;2022-12-18T04:04:14;227.18;;;209.48;;
6485;SDS011;3276;48.490;9.222;2022-12-18T04:06:41;201.60;;;185.32;;
6485;SDS011;3276;48.490;9.222;2022-12-18T04:09:10;237.05;;;219.30;;
6485;SDS011;3276;48.490;9.222;2022-12-18T04:11:35;164.93;;;149.97;;
6485;SDS011;3276;48.490;9.222;2022-12-18T04:14:01;175.37;;;159.40;;
6485;SDS011;3276;48.490;9.222;2022-12-18T04:16:26;239.37;;;221.20;;
6485;SDS011;3276;48.490;9.222;2022-12-18T04:18:53;270.73;;;251.13;;
6485;SDS011;3276;48.490;9.222;2022-12-18T04:21:19;236.02;;;219.02;;
6485;SDS011;3276;48.490;9.222;2022-12-18T04:23:45;222.30;;;204.82;;
6485;SDS011;3276;48.490;9.222;2022-12-18T04:26:10;210.33;;;192.47;;
6485;SDS011;3276;48.490;9.222;2022-12-18T04:28:36;223.33;;;205.73;;
6485;SDS011;3276;48.490;9.222;2022-12-18T04:31:02;188.77;;;173.70;;
6485;SDS011;3276;48.490;9.222;2022-12-18T04:33:27;161.37;;;146.77;;
6485;SDS011;3276;48.490;9.222;2022-12-18T04:35:53;200.70;;;184.70;;
6485;SDS011;3276;48.490;9.222;2022-12-18T04:38:18;221.90;;;204.40;;
6485;SDS011;3276;48.490;9.222;2022-12-18T04:40:44;292.97;;;274.77;;
6485;SDS011;3276;48.490;9.222;2022-12-18T04:43:09;245.77;;;228.53;;
6485;SDS011;3276;48.490;9.222;2022-12-18T04:45:35;195.03;;;178.97;;
6485;SDS011;3276;48.490;9.222;2022-12-18T04:48:01;211.53;;;195.13;;
6485;SDS011;3276;48.490;9.222;2022-12-18T04:50:27;224.13;;;207.15;;
6485;SDS011;3276;48.490;9.222;2022-12-18T04:52:53;211.67;;;195.53;;
6485;SDS011;3276;48.490;9.222;2022-12-18T04:55:19;282.80;;;264.75;;
6485;SDS011;3276;48.490;9.222;2022-12-18T04:57:45;154.05;;;136.52;;
6485;SDS011;3276;48.490;9.222;2022-12-18T05:00:11;211.63;;;194.93;;
6485;SDS011;3276;48.490;9.222;2022-12-18T05:02:37;191.68;;;176.02;;
6485;SDS011;3276;48.490;9.222;2022-12-18T05:05:03;261.60;;;242.93;;
6485;SDS011;3276;48.490;9.222;2022-12-18T05:07:29;198.50;;;181.90;;
6485;SDS011;3276;48.490;9.222;2022-12-18T05:09:55;216.40;;;199.50;;
6485;SDS011;3276;48.490;9.222;2022-12-18T05:12:20;183.50;;;167.27;;
6485;SDS011;3276;48.490;9.222;2022-12-18T05:14:46;213.40;;;196.93;;
6485;SDS011;3276;48.490;9.222;2022-12-18T05:17:11;253.63;;;234.10;;
6485;SDS011;3276;48.490;9.222;2022-12-18T05:19:37;240.47;;;223.53;;
6485;SDS011;3276;48.490;9.222;2022-12-18T05:22:02;192.27;;;175.70;;
6485;SDS011;3276;48.490;9.222;2022-12-18T05:24:28;255.50;;;234.90;;
6485;SDS011;3276;48.490;9.222;2022-12-18T05:26:54;240.13;;;222.63;;
6485;SDS011;3276;48.490;9.222;2022-12-18T05:29:19;191.97;;;175.50;;
6485;SDS011;3276;48.490;9.222;2022-12-18T05:31:45;266.40;;;247.47;;
6485;SDS011;3276;48.490;9.222;2022-12-18T05:34:10;323.70;;;301.03;;
6485;SDS011;3276;48.490;9.222;2022-12-18T05:36:36;235.57;;;218.03;;
6485;SDS011;3276;48.490;9.222;2022-12-18T05:39:01;248.30;;;231.47;;
6485;SDS011;3276;48.490;9.222;2022-12-18T05:41:27;191.80;;;174.90;;
6485;SDS011;3276;48.490;9.222;2022-12-18T05:43:53;194.70;;;179.10;;
6485;SDS011;3276;48.490;9.222;2022-12-18T05:46:19;203.87;;;187.97;;
6485;SDS011;3276;48.490;9.222;2022-12-18T05:48:44;229.23;;;213.33;;
6485;SDS011;3276;48.490;9.222;2022-12-18T05:51:11;403.57;;;375.97;;
6485;SDS011;3276;48.490;9.222;2022-12-18T05:53:39;200.00;;;184.68;;
6485;SDS011;3276;48.490;9.222;2022-12-18T05:56:07;221.25;;;204.32;;
6485;SDS011;3276;48.490;9.222;2022-12-18T05:58:35;209.00;;;192.23;;
6485;SDS011;3276;48.490;9.222;2022-12-18T06:01:11;262.50;;;245.23;;
6485;SDS011;3276;48.490;9.222;2022-12-18T06:03:42;239.25;;;221.68;;
6485;SDS011;3276;48.490;9.222;2022-12-18T06:06:18;233.27;;;216.47;;
6485;SDS011;3276;48.490;9.222;2022-12-18T06:08:43;238.13;;;221.50;;
6485;SDS011;3276;48.490;9.222;2022-12-18T06:11:09;209.32;;;193.55;;
6485;SDS011;3276;48.490;9.222;2022-12-18T06:13:36;227.97;;;211.30;;
6485;SDS011;3276;48.490;9.222;2022-12-18T06:16:03;246.98;;;228.25;;
6485;SDS011;3276;48.490;9.222;2022-12-18T06:18:32;235.02;;;217.57;;
6485;SDS011;3276;48.490;9.222;2022-12-18T06:20:59;285.00;;;266.57;;
6485;SDS011;3276;48.490;9.222;2022-12-18T06:23:25;229.18;;;212.48;;
6485;SDS011;3276;48.490;9.222;2022-12-18T06:25:51;233.57;;;216.83;;
6485;SDS011;3276;48.490;9.222;2022-12-18T06:28:16;300.73;;;281.47;;
6485;SDS011;3276;48.490;9.222;2022-12-18T06:30:45;209.70;;;193.63;;
6485;SDS011;3276;48.490;9.222;2022-12-18T06:33:13;268.33;;;249.35;;
6485;SDS011;3276;48.490;9.222;2022-12-18T06:35:38;190.30;;;173.80;;
6485;SDS011;3276;48.490;9.222;2022-12-18T06:38:04;265.43;;;247.27;;
6485;SDS011;3276;48.490;9.222;2022-12-18T06:40:29;274.30;;;254.67;;
6485;SDS011;3276;48.490;9.222;2022-12-18T06:42:55;238.30;;;221.47;;
6485;SDS011;3276;48.490;9.222;2022-12-18T06:45:20;226.63;;;210.60;;
6485;SDS011;3276;48.490;9.222;2022-12-18T06:47:46;217.43;;;200.87;;
6485;SDS011;3276;48.490;9.222;2022-12-18T06:50:12;195.40;;;180.13;;
6485;SDS011;3276;48.490;9.222;2022-12-18T06:52:38;205.23;;;189.38;;
6485;SDS011;3276;48.490;9.222;2022-12-18T06:55:05;265.95;;;248.85;;
6485;SDS011;3276;48.490;9.222;2022-12-18T06:57:32;240.98;;;224.18;;
6485;SDS011;3276;48.490;9.222;2022-12-18T06:59:58;217.23;;;201.53;;
6485;SDS011;3276;48.490;9.222;2022-12-18T07:02:24;280.10;;;260.63;;
6485;SDS011;3276;48.490;9.222;2022-12-18T07:04:50;246.37;;;229.30;;
6485;SDS011;3276;48.490;9.222;2022-12-18T07:07:15;265.60;;;248.90;;
6485;SDS011;3276;48.490;9.222;2022-12-18T07:09:41;259.73;;;242.50;;
6485;SDS011;3276;48.490;9.222;2022-12-18T07:12:07;238.53;;;221.50;;
6485;SDS011;3276;48.490;9.222;2022-12-18T07:14:33;230.43;;;213.53;;
6485;SDS011;3276;48.490;9.222;2022-12-18T07:16:58;204.43;;;188.37;;
6485;SDS011;3276;48.490;9.222;2022-12-18T07:19:24;223.43;;;207.50;;
6485;SDS011;3276;48.490;9.222;2022-12-18T07:21:50;224.37;;;208.30;;
6485;SDS011;3276;48.490;9.222;2022-12-18T07:24:16;272.65;;;255.60;;
6485;SDS011;3276;48.490;9.222;2022-12-18T07:26:41;231.77;;;215.77;;
6485;SDS011;3276;48.490;9.222;2022-12-18T07:29:07;346.17;;;323.83;;
6485;SDS011;3276;48.490;9.222;2022-12-18T07:31:33;209.47;;;192.50;;
6485;SDS011;3276;48.490;9.222;2022-12-18T07:33:58;252.97;;;235.87;;
6485;SDS011;3276;48.490;9.222;2022-12-18T07:36:24;278.80;;;260.23;;
6485;SDS011;3276;48.490;9.222;2022-12-18T07:38:50;288.43;;;270.83;;
6485;SDS011;3276;48.490;9.222;2022-12-18T07:41:17;250.82;;;233.70;;
6485;SDS011;3276;48.490;9.222;2022-12-18T07:43:43;248.38;;;230.52;;
6485;SDS011;3276;48.490;9.222;2022-12-18T07:46:09;284.97;;;267.33;;
6485;SDS011;3276;48.490;9.222;2022-12-18T07:48:36;275.77;;;258.00;;
6485;SDS011;3276;48.490;9.222;2022-12-18T07:51:02;280.80;;;262.73;;
6485;SDS011;3276;48.490;9.222;2022-12-18T07:53:30;219.93;;;203.70;;
6485;SDS011;3276;48.490;9.222;2022-12-18T07:55:58;262.73;;;245.13;;
6485;SDS011;3276;48.490;9.222;2022-12-18T07:58:24;247.77;;;229.40;;
6485;SDS011;3276;48.490;9.222;2022-12-18T08:00:50;211.02;;;194.27;;
6485;SDS011;3276;48.490;9.222;2022-12-18T08:03:17;264.25;;;246.90;;
6485;SDS011;3276;48.490;9.222;2022-12-18T08:05:42;323.90;;;300.30;;
6485;SDS011;3276;48.490;9.222;2022-12-18T08:08:08;214.80;;;198.50;;
6485;SDS011;3276;48.490;9.222;2022-12-18T08:10:34;241.57;;;224.37;;
6485;SDS011;3276;48.490;9.222;2022-12-18T08:12:59;243.87;;;225.60;;
6485;SDS011;3276;48.490;9.222;2022-12-18T08:15:25;243.13;;;225.17;;
6485;SDS011;3276;48.490;9.222;2022-12-18T08:17:50;238.07;;;221.00;;
6485;SDS011;3276;48.490;9.222;2022-12-18T08:20:16;253.93;;;235.77;;
6485;SDS011;3276;48.490;9.222;2022-12-18T08:22:43;262.55;;;243.55;;
6485;SDS011;3276;48.490;9.222;2022-12-18T08:25:09;240.10;;;223.43;;
6485;SDS011;3276;48.490;9.222;2022-12-18T08:27:35;209.13;;;193.20;;
6485;SDS011;3276;48.490;9.222;2022-12-18T08:30:01;252.00;;;233.97;;
6485;SDS011;3276;48.490;9.222;2022-12-18T08:32:27;262.33;;;242.73;;
6485;SDS011;3276;48.490;9.222;2022-12-18T08:34:52;218.30;;;201.00;;
6485;SDS011;3276;48.490;9.222;2022-12-18T08:37:18;182.27;;;166.13;;
6485;SDS011;3276;48.490;9.222;2022-12-18T08:39:43;212.60;;;196.83;;
6485;SDS011;3276;48.490;9.222;2022-12-18T08:42:09;198.00;;;181.90;;
6485;SDS011;3276;48.490;9.222;2022-12-18T08:44:53;241.50;;;224.18;;
6485;SDS011;3276;48.490;9.222;2022-12-18T08:47:19;211.87;;;195.20;;
6485;SDS011;3276;48.490;9.222;2022-12-18T08:49:44;242.53;;;225.83;;
6485;SDS011;3276;48.490;9.222;2022-12-18T08:52:10;238.30;;;221.67;;
6485;SDS011;3276;48.490;9.222;2022-12-18T08:54:38;224.38;;;206.82;;
6485;SDS011;3276;48.490;9.222;2022-12-18T08:57:04;241.53;;;223.27;;
6485;SDS011;3276;48.490;9.222;2022-12-18T08:59:29;202.53;;;186.00;;
6485;SDS011;3276;48.490;9.222;2022-12-18T09:01:55;203.63;;;187.33;;
6485;SDS011;3276;48.490;9.222;2022-12-18T09:04:21;242.93;;;225.87;;
6485;SDS011;3276;48.490;9.222;2022-12-18T09:06:47;218.52;;;202.10;;
6485;SDS011;3276;48.490;9.222;2022-12-18T09:09:13;168.13;;;152.83;;
6485;SDS011;3276;48.490;9.222;2022-12-18T09:11:38;162.80;;;147.40;;
6485;SDS011;3276;48.490;9.222;2022-12-18T09:14:04;183.83;;;166.83;;
6485;SDS011;3276;48.490;9.222;2022-12-18T09:16:30;189.10;;;172.33;;
6485;SDS011;3276;48.490;9.222;2022-12-18T09:18:56;173.48;;;158.15;;
6485;SDS011;3276;48.490;9.222;2022-12-18T09:21:25;185.38;;;169.23;;
6485;SDS011;3276;48.490;9.222;2022-12-18T09:23:52;178.75;;;163.10;;
6485;SDS011;3276;48.490;9.222;2022-12-18T09:26:19;223.70;;;205.68;;
6485;SDS011;3276;48.490;9.222;2022-12-18T09:28:45;191.57;;;173.27;;
6485;SDS011;3276;48.490;9.222;2022-12-18T09:31:11;153.67;;;138.40;;
6485;SDS011;3276;48.490;9.222;2022-12-18T09:33:37;168.25;;;151.65;;
6485;SDS011;3276;48.490;9.222;2022-12-18T09:36:04;223.87;;;205.57;;
6485;SDS011;3276;48.490;9.222;2022-12-18T09:38:31;151.43;;;135.85;;
6485;SDS011;3276;48.490;9.222;2022-12-18T09:40:59;133.02;;;118.75;;
6485;SDS011;3276;48.490;9.222;2022-12-18T09:43:51;122.78;;;100.45;;
6485;SDS011;3276;48.490;9.222;2022-12-18T09:46:19;128.95;;;103.53;;
6485;SDS011;3276;48.490;9.222;2022-12-18T09:48:56;172.45;;;156.23;;
6485;SDS011;3276;48.490;9.222;2022-12-18T09:51:30;197.48;;;179.68;;
6485;SDS011;3276;48.490;9.222;2022-12-18T09:54:03;150.30;;;135.32;;
6485;SDS011;3276;48.490;9.222;2022-12-18T09:56:34;212.10;;;194.18;;
6485;SDS011;3276;48.490;9.222;2022-12-18T09:59:02;170.60;;;154.63;;
6485;SDS011;3276;48.490;9.222;2022-12-18T10:01:29;170.35;;;152.80;;
6485;SDS011;3276;48.490;9.222;2022-12-18T10:03:56;125.55;;;106.13;;
6485;SDS011;3276;48.490;9.222;2022-12-18T10:06:28;135.77;;;109.78;;
6485;SDS011;3276;48.490;9.222;2022-12-18T10:09:09;162.45;;;145.50;;
6485;SDS011;3276;48.490;9.222;2022-12-18T10:14:26;174.32;;;155.55;;
6485;SDS011;3276;48.490;9.222;2022-12-18T10:25:23;127.15;;;94.78;;
6485;SDS011;3276;48.490;9.222;2022-12-18T10:27:58;126.75;;;71.95;;
6485;SDS011;3276;48.490;9.222;2022-12-18T10:30:32;120.05;;;76.28;;
6485;SDS011;3276;48.490;9.222;2022-12-18T10:33:01;121.50;;;79.40;;
6485;SDS011;3276;48.490;9.222;2022-12-18T10:35:27;147.00;;;117.90;;
6485;SDS011;3276;48.490;9.222;2022-12-18T10:43:25;109.32;;;62.50;;
6485;SDS011;3276;48.490;9.222;2022-12-18T10:45:58;125.93;;;61.45;;
6485;SDS011;3276;48.490;9.222;2022-12-18T10:48:30;113.40;;;58.85;;
6485;SDS011;3276;48.490;9.222;2022-12-18T10:50:58;112.28;;;76.65;;
6485;SDS011;3276;48.490;9.222;2022-12-18T10:53:26;115.53;;;59.72;;
6485;SDS011;3276;48.490;9.222;2022-12-18T10:55:54;119.90;;;71.10;;
6485;SDS011;3276;48.490;9.222;2022-12-18T11:03:42;102.13;;;51.55;;
6485;SDS011;3276;48.490;9.222;2022-12-18T11:06:13;106.60;;;52.95;;
6485;SDS011;3276;48.490;9.222;2022-12-18T11:08:41;116.30;;;75.63;;
6485;SDS011;3276;48.490;9.222;2022-12-18T11:11:18;109.70;;;59.13;;
6485;SDS011;3276;48.490;9.222;2022-12-18T11:13:57;203.20;;;183.50;;
6485;SDS011;3276;48.490;9.222;2022-12-18T11:16:26;154.88;;;133.50;;
6485;SDS011;3276;48.490;9.222;2022-12-18T11:18:55;121.00;;;75.88;;
6485;SDS011;3276;48.490;9.222;2022-12-18T11:21:40;113.72;;;61.03;;
6485;SDS011;3276;48.490;9.222;2022-12-18T11:24:12;108.60;;;65.60;;
6485;SDS011;3276;48.490;9.222;2022-12-18T11:26:59;117.20;;;52.08;;
6485;SDS011;3276;48.490;9.222;2022-12-18T11:29:37;118.50;;;70.57;;
6485;SDS011;3276;48.490;9.222;2022-12-18T11:34:48;103.50;;;54.25;;
6485;SDS011;3276;48.490;9.222;2022-12-18T11:37:20;189.40;;;166.75;;
6485;SDS011;3276;48.490;9.222;2022-12-18T11:39:51;127.38;;;83.30;;
6485;SDS011;3276;48.490;9.222;2022-12-18T11:42:30;108.93;;;52.22;;
6485;SDS011;3276;48.490;9.222;2022-12-18T11:47:52;120.18;;;76.70;;
6485;SDS011;3276;48.490;9.222;2022-12-18T11:53:01;109.47;;;58.92;;
6485;SDS011;3276;48.490;9.222;2022-12-18T11:55:35;113.75;;;57.20;;
6485;SDS011;3276;48.490;9.222;2022-12-18T11:58:23;117.03;;;69.68;;
6485;SDS011;3276;48.490;9.222;2022-12-18T12:09:17;107.75;;;51.72;;
6485;SDS011;3276;48.490;9.222;2022-12-18T12:11:53;106.80;;;56.47;;
6485;SDS011;3276;48.490;9.222;2022-12-18T12:20:10;105.07;;;55.65;;
6485;SDS011;3276;48.490;9.222;2022-12-18T12:25:59;113.63;;;54.97;;
6485;SDS011;3276;48.490;9.222;2022-12-18T12:31:09;110.45;;;53.75;;
6485;SDS011;3276;48.490;9.222;2022-12-18T12:33:42;105.40;;;60.30;;
6485;SDS011;3276;48.490;9.222;2022-12-18T12:38:59;103.13;;;54.45;;
6485;SDS011;3276;48.490;9.222;2022-12-18T12:41:36;103.68;;;53.72;;
6485;SDS011;3276;48.490;9.222;2022-12-18T12:44:30;111.60;;;58.95;;
6485;SDS011;3276;48.490;9.222;2022-12-18T12:46:59;120.97;;;88.03;;
6485;SDS011;3276;48.490;9.222;2022-12-18T12:49:37;109.43;;;74.53;;
6485;SDS011;3276;48.490;9.222;2022-12-18T12:52:05;178.85;;;161.07;;
6485;SDS011;3276;48.490;9.222;2022-12-18T12:54:46;117.15;;;58.72;;
6485;SDS011;3276;48.490;9.222;2022-12-18T12:57:15;136.80;;;108.38;;
6485;SDS011;3276;48.490;9.222;2022-12-18T13:00:01;113.35;;;57.08;;
6485;SDS011;3276;48.490;9.222;2022-12-18T13:02:31;153.45;;;129.73;;
6485;SDS011;3276;48.490;9.222;2022-12-18T13:07:53;148.80;;;122.65;;
6485;SDS011;3276;48.490;9.222;2022-12-18T13:18:21;127.35;;;75.60;;
6485;SDS011;3276;48.490;9.222;2022-12-18T13:21:03;149.10;;;130.50;;
6485;SDS011;3276;48.490;9.222;2022-12-18T13:23:45;117.80;;;70.15;;
6485;SDS011;3276;48.490;9.222;2022-12-18T13:31:15;107.13;;;60.78;;
6485;SDS011;3276;48.490;9.222;2022-12-18T13:34:27;106.45;;;54.05;;
6485;SDS011;3276;48.490;9.222;2022-12-18T13:36:56;115.88;;;71.68;;
6485;SDS011;3276;48.490;9.222;2022-12-18T13:39:42;114.35;;;63.30;;
6485;SDS011;3276;48.490;9.222;2022-12-18T13:44:37;112.43;;;53.40;;
6485;SDS011;3276;48.490;9.222;2022-12-18T13:50:00;139.05;;;117.95;;
6485;SDS011;3276;48.490;9.222;2022-12-18T13:52:35;108.97;;;45.67;;
6485;SDS011;3276;48.490;9.222;2022-12-18T13:55:04;109.95;;;55.72;;
6485;SDS011;3276;48.490;9.222;2022-12-18T13:57:33;109.25;;;56.58;;
6485;SDS011;3276;48.490;9.222;2022-12-18T14:02:45;111.18;;;53.13;;
6485;SDS011;3276;48.490;9.222;2022-12-18T14:05:24;103.80;;;59.70;;
6485;SDS011;3276;48.490;9.222;2022-12-18T14:07:50;112.50;;;53.22;;
6485;SDS011;3276;48.490;9.222;2022-12-18T14:10:17;106.28;;;57.17;;
6485;SDS011;3276;48.490;9.222;2022-12-18T14:12:47;103.75;;;51.20;;
6485;SDS011;3276;48.490;9.222;2022-12-18T14:17:52;98.95;;;51.10;;
6485;SDS011;3276;48.490;9.222;2022-12-18T14:20:30;141.05;;;100.43;;
6485;SDS011;3276;48.490;9.222;2022-12-18T14:22:57;101.35;;;55.67;;
6485;SDS011;3276;48.490;9.222;2022-12-18T14:25:25;96.03;;;38.92;;
6485;SDS011;3276;48.490;9.222;2022-12-18T14:30:35;97.35;;;53.03;;
6485;SDS011;3276;48.490;9.222;2022-12-18T14:33:02;97.38;;;58.10;;
6485;SDS011;3276;48.490;9.222;2022-12-18T14:35:27;98.05;;;46.85;;
6485;SDS011;3276;48.490;9.222;2022-12-18T14:37:59;144.10;;;129.20;;
6485;SDS011;3276;48.490;9.222;2022-12-18T14:40:44;98.55;;;51.42;;
6485;SDS011;3276;48.490;9.222;2022-12-18T14:43:13;99.20;;;63.33;;
6485;SDS011;3276;48.490;9.222;2022-12-18T14:45:39;99.43;;;50.45;;
6485;SDS011;3276;48.490;9.222;2022-12-18T14:48:15;104.35;;;66.15;;
6485;SDS011;3276;48.490;9.222;2022-12-18T14:50:45;99.47;;;56.22;;
6485;SDS011;3276;48.490;9.222;2022-12-18T14:53:29;92.80;;;50.90;;
6485;SDS011;3276;48.490;9.222;2022-12-18T14:55:56;95.22;;;59.83;;
6485;SDS011;3276;48.490;9.222;2022-12-18T14:58:21;95.23;;;69.83;;
6485;SDS011;3276;48.490;9.222;2022-12-18T15:00:47;91.53;;;42.20;;
6485;SDS011;3276;48.490;9.222;2022-12-18T15:03:14;97.27;;;52.90;;
6485;SDS011;3276;48.490;9.222;2022-12-18T15:05:44;89.85;;;39.60;;
6485;SDS011;3276;48.490;9.222;2022-12-18T15:08:30;100.57;;;50.50;;
6485;SDS011;3276;48.490;9.222;2022-12-18T15:11:01;99.60;;;52.92;;
6485;SDS011;3276;48.490;9.222;2022-12-18T15:13:27;90.03;;;39.50;;
6485;SDS011;3276;48.490;9.222;2022-12-18T15:15:52;93.70;;;40.17;;
6485;SDS011;3276;48.490;9.222;2022-12-18T15:18:23;95.65;;;44.03;;
6485;SDS011;3276;48.490;9.222;2022-12-18T15:20:57;97.38;;;52.00;;
6485;SDS011;3276;48.490;9.222;2022-12-18T15:23:44;96.85;;;43.42;;
6485;SDS011;3276;48.490;9.222;2022-12-18T15:26:12;92.13;;;39.42;;
6485;SDS011;3276;48.490;9.222;2022-12-18T15:36:18;94.38;;;41.47;;
6485;SDS011;3276;48.490;9.222;2022-12-18T15:38:47;102.20;;;41.75;;
6485;SDS011;3276;48.490;9.222;2022-12-18T15:41:18;96.72;;;44.67;;
6485;SDS011;3276;48.490;9.222;2022-12-18T15:43:46;96.43;;;42.65;;
6485;SDS011;3276;48.490;9.222;2022-12-18T15:46:16;100.40;;;38.83;;
6485;SDS011;3276;48.490;9.222;2022-12-18T15:48:44;106.13;;;51.00;;
6485;SDS011;3276;48.490;9.222;2022-12-18T15:51:32;95.10;;;37.40;;
6485;SDS011;3276;48.490;9.222;2022-12-18T15:54:00;102.22;;;44.95;;
6485;SDS011;3276;48.490;9.222;2022-12-18T15:56:31;98.32;;;42.92;;
6485;SDS011;3276;48.490;9.222;2022-12-18T15:59:16;110.60;;;66.15;;
6485;SDS011;3276;48.490;9.222;2022-12-18T16:01:44;102.38;;;39.03;;
6485;SDS011;3276;48.490;9.222;2022-12-18T16:04:16;100.72;;;63.60;;
6485;SDS011;3276;48.490;9.222;2022-12-18T16:06:45;98.00;;;43.40;;
6485;SDS011;3276;48.490;9.222;2022-12-18T16:09:11;105.13;;;47.63;;
6485;SDS011;3276;48.490;9.222;2022-12-18T16:11:36;97.83;;;37.77;;
6485;SDS011;3276;48.490;9.222;2022-12-18T16:16:48;107.07;;;62.88;;
6485;SDS011;3276;48.490;9.222;2022-12-18T16:19:16;107.32;;;61.80;;
6485;SDS011;3276;48.490;9.222;2022-12-18T16:21:42;112.22;;;54.47;;
6485;SDS011;3276;48.490;9.222;2022-12-18T16:24:15;100.68;;;42.20;;
6485;SDS011;3276;48.490;9.222;2022-12-18T16:26:42;95.38;;;42.35;;
6485;SDS011;3276;48.490;9.222;2022-12-18T16:29:08;96.93;;;44.00;;
6485;SDS011;3276;48.490;9.222;2022-12-18T16:31:34;101.07;;;50.25;;
6485;SDS011;3276;48.490;9.222;2022-12-18T16:34:10;95.80;;;43.60;;
6485;SDS011;3276;48.490;9.222;2022-12-18T16:36:35;101.45;;;45.63;;
6485;SDS011;3276;48.490;9.222;2022-12-18T16:39:03;99.67;;;43.30;;